Briefing drone pour Firminy

Rechercher une autre localisation

Conditions de vol :


Nous sommes le : Lundi 24 janvier 2022
Il est 22:13 UTC (23:13 LT)

Lever de soleil : 06:45 UTC (07:45 LT)
Coucher de soleil : 17:04 UTC (18:04 LT)

Météo

L'essentiel des conditions de vol

VIGILANCE MÉTÉO FRANCE - Loire (42)
Pas de vigilances particulieres
METAR de LFMH
LFMH 242200Z AUTO 00000KT 4500 BR NSC M02/M03 Q1031

Date d'émission: 24/01/2022
Heure d'émission: 22:00 UTC
Vent: Calme
Visibilité horizontale: 4500 m
Plafond : Pas de nuages significatifs (NSC)
Température: -2 °C
Point de rosée: -3 °C
Humidité: 93%
Pression (QNH): 1031 hPa
Conditions: Brume
TAF de LFMH
LFMH 161901Z 1619/1712 CNL

Conditions prévues :

Heure d'émission : Bulletin éffectué le 16 à 19:00 UTC
Prévision : Valide du 16 a 19:00 UTC au 17 a 12:00 UTC
Nuages : à 0ft (0 m)
WEBCAM POUR FIRMINY

Réglementation

Voler en sécurité

CARTES AERONAUTIQUE 1/500.000
CARTES VAC (LFMH)
SUP AIP




Chargement des AIP...
NOTAM (FIRMINY + Terrain à proximité / FIR )




Chargement des NOTAMS...
CONTACT PREFECTURE 42


Avertissement : Les données mises à disposition sont indicatives. Oxygène Drone ne pourra être tenu responsable de dégâts causés aux biens et aux personnes.